Latest Weather Observations for Cape Borda

IDS60801

Issued at 12:35 pm CST Sunday 20 April 2014 (issued every 30 minutes, with the page automatically refreshed every 10 minutes)

About weather observations | Map of weather stations | Latest weather observations for SA | Other Formats
Station Details ID: 022823 Name: CAPE BORDA Lat: -35.75 Lon: 136.60 Height: 158.0 m
Data from the previous 72 hours. | See also: Recent months at Cape Borda
Date/Time
CST
Temp
°C
App
Temp
°C
Dew
Point
Rel
Hum
%
Delta-T
°C
Wind Press
QNH
hPa
Press
MSL
hPa
Rain
since 9 am
mm
Dir
 
Spd
km/h
Gust
km/h
Spd
kts
Gust
kts
20/12:30pm 17.5 14.8 13.4 77 2.3 W 20 28 11 15 1017.8 - 0.0
20/12:00pm 18.4 15.4 12.7 69 3.2 WNW 20 26 11 14 1018.1 1018.0 0.0
20/11:30am 18.1 15.2 12.4 69 3.2 WNW 19 24 10 13 1018.3 - -
20/11:00am 17.6 14.7 12.4 71 2.9 NW 19 26 10 14 1018.4 - 0.0
20/10:30am 17.1 14.1 11.8 71 2.9 NW 19 24 10 13 1018.5 - 0.0
20/10:00am 17.3 14.6 11.8 70 3.0 NW 17 24 9 13 1018.2 - 0.0
20/09:30am 16.8 14.1 11.7 72 2.8 NW 17 24 9 13 1018.4 - 0.0
20/09:00am 16.3 13.5 11.5 73 2.6 NW 17 22 9 12 1018.4 1018.3 0.0
20/08:30am 16.7 14.3 11.4 71 2.9 NW 15 20 8 11 1018.4 - 0.0
20/08:00am 16.1 13.3 11.5 74 2.5 WNW 17 24 9 13 1018.2 - 0.0
20/07:30am 15.4 12.8 11.9 79 1.9 NW 17 24 9 13 1017.7 - 0.0
20/07:00am 15.4 12.1 10.9 74 2.4 NW 19 24 10 13 1017.6 - 0.0
20/06:30am 15.2 12.2 10.7 74 2.4 NW 17 20 9 11 1017.2 - 0.0
20/06:00am 15.2 11.8 10.5 73 2.5 - 19 24 10 13 1017.1 1017.0 0.0
20/05:30am 15.2 11.8 10.7 74 2.4 NW 19 24 10 13 1017.0 - 0.0
20/05:00am 15.2 11.8 11.3 77 2.1 NNW 20 28 11 15 1016.6 - 0.0
20/04:30am 15.1 11.7 11.2 77 2.1 NW 20 28 11 15 1016.5 - 0.0
20/04:00am 15.0 11.8 10.0 72 2.6 NW 17 22 9 12 1016.4 - 0.0
20/03:30am 14.6 11.4 10.0 74 2.4 NW 17 22 9 12 1016.6 - 0.0
20/03:00am 14.7 12.0 10.3 75 2.3 NW 15 20 8 11 1016.4 1016.3 0.0
20/02:30am 15.2 12.0 9.9 70 2.8 NW 17 22 9 12 1016.8 - -
20/02:00am 14.6 11.6 10.8 78 2.0 NNW 17 20 9 11 1016.9 - 0.0
20/01:30am 14.7 12.0 10.5 76 2.2 NNW 15 20 8 11 1017.2 - 0.0
20/01:00am 14.7 12.0 10.3 75 2.3 NNW 15 20 8 11 1017.2 - -
20/12:30am 15.0 11.5 8.7 66 3.2 N 17 22 9 12 1017.4 - 0.0
20/12:00am 14.7 11.5 8.4 66 3.2 N 15 20 8 11 1017.4 1017.3 0.0
 
Date/Time
CST
Temp
°C
App
Temp
°C
Dew
Point
Rel
Hum
%
Delta-T
°C
Wind Press
QNH
hPa
Press
MSL
hPa
Rain
since 9 am
mm
Dir
 
Spd
km/h
Gust
km/h
Spd
kts
Gust
kts
19/11:30pm 14.3 11.0 7.9 65 3.2 N 15 20 8 11 1017.5 - -
19/11:00pm 14.8 11.5 8.0 64 3.4 N 15 20 8 11 1017.6 - -
19/10:30pm 14.7 11.9 7.0 60 3.8 N 11 13 6 7 1018.0 - 0.0
19/10:00pm 14.5 12.5 7.2 61 3.6 N 7 11 4 6 1018.2 - 0.0
19/09:30pm 14.6 12.3 7.3 61 3.6 N 9 13 5 7 1018.2 - -
19/09:00pm 14.4 12.4 7.1 61 3.6 N 7 9 4 5 1018.3 1018.2 0.0
19/08:30pm 14.4 12.3 6.8 60 3.7 N 7 9 4 5 1018.3 - 0.0
19/08:00pm 14.5 12.0 6.5 58 3.9 N 9 13 5 7 1018.1 - 0.0
19/07:30pm 14.5 12.0 6.7 59 3.8 N 9 13 5 7 1018.3 - 0.0
19/07:00pm 14.4 12.3 6.6 59 3.8 N 7 11 4 6 1018.2 - 0.0
19/06:30pm 14.4 12.3 6.6 59 3.8 N 7 9 4 5 1018.0 - 0.0
19/06:00pm 14.6 12.1 6.6 58 3.9 N 9 11 5 6 1018.0 1017.9 0.0
19/05:30pm 14.9 12.3 6.2 56 4.2 N 9 11 5 6 1018.2 - 0.0
19/05:00pm 15.2 12.3 6.4 55 4.3 NNW 11 15 6 8 1018.2 - 0.0
19/04:30pm 15.7 12.8 6.3 53 4.6 N 11 17 6 9 1018.3 - 0.0
19/04:00pm 15.8 12.7 5.6 50 4.9 NW 11 15 6 8 1018.7 - 0.0
19/03:30pm 16.3 13.1 5.3 48 5.3 NNW 11 17 6 9 1018.8 - 0.0
19/03:00pm 17.3 13.8 5.3 45 5.8 NNW 13 19 7 10 1018.9 1018.8 0.0
19/02:30pm 16.8 12.8 4.9 45 5.7 NNW 15 20 8 11 1019.2 - 0.0
19/02:00pm 16.4 12.6 3.7 42 5.9 N 13 17 7 9 1019.3 - 0.0
19/01:30pm 16.3 13.3 4.1 44 5.7 NNW 9 13 5 7 1019.5 - -
19/01:00pm 15.9 12.5 4.1 45 5.5 N 11 15 6 8 1020.1 - 0.0
19/12:30pm 15.6 12.7 4.5 47 5.2 N 9 17 5 9 1020.9 - 0.0
19/12:00pm 15.8 12.3 5.6 50 4.9 NNE 13 17 7 9 1021.2 1021.0 0.0
19/11:30am 15.8 12.3 5.6 50 4.9 NE 13 19 7 10 1021.6 - -
19/11:00am 15.3 11.4 5.2 51 4.8 NE 15 20 8 11 1021.9 - 0.0
19/10:30am 15.4 11.8 5.1 50 4.9 NE 13 19 7 10 1022.2 - 0.0
19/10:00am 15.5 11.6 5.2 50 4.9 NE 15 24 8 13 1022.4 - 0.0
19/09:30am 15.0 11.3 4.5 49 4.9 ENE 13 20 7 11 1022.6 - 0.0
19/09:00am 14.6 10.9 4.5 50 4.7 ENE 13 19 7 10 1022.6 1022.5 0.0
19/08:30am 13.6 10.7 4.8 55 4.1 E 9 13 5 7 1022.6 - 0.0
19/08:00am 12.7 9.9 5.2 60 3.5 ESE 9 11 5 6 1022.6 - 0.0
19/07:30am 12.6 9.3 4.3 57 3.8 E 11 11 6 6 1022.4 - -
19/07:00am 12.3 8.5 4.1 57 3.7 E 13 13 7 7 1022.3 - 0.0
19/06:30am 12.5 9.5 3.9 56 3.9 E 9 11 5 6 1022.2 - 0.0
19/06:00am 12.6 9.1 3.4 53 4.1 - 11 13 6 7 1022.1 1022.0 0.0
19/05:30am 12.0 8.7 4.6 60 3.4 ESE 11 13 6 7 1022.1 - -
19/05:00am 12.3 9.0 4.4 58 3.6 E 11 13 6 7 1022.2 - 0.0
19/04:30am 12.2 8.5 4.5 59 3.5 E 13 15 7 8 1022.1 - 0.0
19/04:00am 11.7 8.4 6.2 69 2.6 ESE 13 13 7 7 1022.1 - 0.0
19/03:30am 11.9 8.9 6.2 68 2.7 ESE 11 13 6 7 1022.1 - 0.0
19/03:00am 11.8 9.0 6.8 71 2.4 ESE 11 13 6 7 1022.3 1022.2 0.0
19/02:30am 12.0 9.2 6.8 70 2.5 ESE 11 13 6 7 1022.4 - 0.0
19/02:00am 12.2 9.4 7.0 70 2.5 ESE 11 13 6 7 1022.6 - 0.0
19/01:30am 12.3 9.5 7.1 70 2.5 ESE 11 13 6 7 1022.8 - 0.0
19/01:00am 12.2 9.9 7.5 73 2.3 ESE 9 11 5 6 1023.0 - 0.0
19/12:30am 12.3 9.7 7.6 73 2.3 SE 11 11 6 6 1023.1 - 0.0
19/12:00am 12.9 10.6 7.6 70 2.6 SSE 9 11 5 6 1023.3 1023.2 0.0
 
Date/Time
CST
Temp
°C
App
Temp
°C
Dew
Point
Rel
Hum
%
Delta-T
°C
Wind Press
QNH
hPa
Press
MSL
hPa
Rain
since 9 am
mm
Dir
 
Spd
km/h
Gust
km/h
Spd
kts
Gust
kts
18/11:30pm 12.4 8.9 7.2 70 2.5 SSE 15 19 8 10 1023.4 - 0.0
18/11:00pm 11.5 8.8 7.4 76 2.0 SSE 11 11 6 6 1023.6 - 0.0
18/10:30pm 12.2 9.9 7.5 73 2.3 SSE 9 11 5 6 1023.8 - 0.0
18/10:00pm 12.3 9.5 7.1 70 2.5 SSE 11 13 6 7 1024.0 - 0.0
18/09:30pm 12.2 9.3 6.3 67 2.8 SSE 11 13 6 7 1024.0 - 0.0
18/09:00pm 12.1 9.0 5.7 65 3.0 SSE 11 13 6 7 1024.0 1023.9 0.0
18/08:30pm 11.2 8.4 5.3 67 2.7 S 9 11 5 6 1024.0 - 0.0
18/08:00pm 10.5 7.0 5.5 71 2.3 S 13 15 7 8 1023.9 - 0.0
18/07:30pm 10.8 7.0 5.6 70 2.4 S 15 17 8 9 1023.7 - -
18/07:00pm 11.3 7.5 6.0 70 2.5 S 15 17 8 9 1023.6 - 0.0
18/06:30pm 12.2 8.8 6.1 66 2.9 S 13 13 7 7 1023.5 - 0.0
18/06:00pm 14.3 10.2 6.2 58 3.9 S 17 22 9 12 1023.2 1023.1 0.0
18/05:30pm 14.7 11.5 7.0 60 3.8 S 13 20 7 11 1023.2 - 0.0
18/05:00pm 14.9 11.0 5.4 53 4.5 S 15 20 8 11 1023.1 - 0.0
18/04:30pm 17.0 12.3 5.1 45 5.7 SW 19 22 10 12 1022.9 - 0.0
18/04:00pm 17.3 12.7 3.9 41 6.3 S 17 28 9 15 1022.9 - 0.0
18/03:30pm 16.8 11.2 3.7 41 6.1 SSW 22 35 12 19 1022.9 - 0.0
18/03:00pm 17.1 10.7 3.3 39 6.4 SW 26 37 14 20 1022.7 1022.6 0.0
18/02:30pm 17.0 11.4 3.4 40 6.3 SSW 22 33 12 18 1022.8 - 0.0
18/02:00pm 17.1 10.7 5.3 45 5.7 SSW 28 46 15 25 1022.6 - 0.0
18/01:58pm 17.2 10.9 5.7 46 5.6 SSW 28 46 15 25 1022.5 - 0.0
18/01:30pm 17.2 11.1 6.7 50 5.2 SW 28 37 15 20 1022.6 - 0.0
18/01:00pm 18.3 12.6 5.1 41 6.4 SW 24 37 13 20 1022.7 - 0.0
18/12:30pm 17.1 11.7 6.3 49 5.3 SSW 24 33 13 18 1022.9 - 0.0
18/12:00pm 17.4 12.5 5.2 44 5.9 SSW 20 30 11 16 1023.1 1023.0 0.0
18/11:30am 17.4 11.5 6.0 47 5.6 S 26 33 14 18 1023.0 - 0.0
18/11:00am 17.3 11.5 6.4 48 5.4 SW 26 35 14 19 1023.1 - 0.0
18/10:30am 16.1 10.6 5.8 50 5.0 SW 24 32 13 17 1023.1 - 0.0
18/10:00am 16.4 10.7 6.9 53 4.7 SW 26 35 14 19 1022.9 - 0.0
18/09:30am 16.7 11.7 6.6 51 5.0 SW 22 28 12 15 1022.8 - 0.0
18/09:00am 15.5 10.2 6.7 55 4.3 SSW 24 33 13 18 1022.6 1022.5 0.0
18/08:30am 15.3 10.7 8.2 62 3.6 S 22 33 12 18 1022.3 - 0.0
18/08:00am 14.1 10.8 9.4 73 2.4 S 17 24 9 13 1021.9 - 0.0
18/07:30am 13.6 9.7 9.3 75 2.2 S 20 26 11 14 1021.4 - 0.0
18/07:00am 12.6 8.9 9.3 80 1.7 S 19 26 10 14 1020.9 - 0.0
18/06:30am 13.1 9.4 10.0 81 1.6 S 20 28 11 15 1020.4 - 0.0
18/06:00am 13.9 9.4 10.1 78 2.0 SSW 24 35 13 19 1020.0 1019.9 0.0
18/05:30am 14.6 9.5 10.6 77 2.1 SSW 28 39 15 21 1019.7 - 0.0
18/05:00am 15.1 11.0 12.7 85 1.3 SSW 26 39 14 21 1019.5 - 0.0
18/04:30am 14.6 11.3 14.1 97 0.3 SSW 24 32 13 17 1019.1 - 0.0
18/04:00am 14.9 10.9 14.0 94 0.5 SSW 28 44 15 24 1018.6 - 0.0
18/03:46am 15.2 10.3 14.3 94 0.5 SSW 33 52 18 28 1018.5 - 0.0
18/03:31am 15.7 10.1 14.5 93 0.7 SW 37 46 20 25 1018.5 - 0.0
18/03:30am 15.9 11.2 14.3 90 0.9 W 32 46 17 25 1018.4 - 0.0
18/03:24am 16.6 12.8 14.7 88 1.1 W 28 46 15 25 1018.5 - 0.0
18/03:00am 16.9 12.6 14.3 85 1.5 W 30 41 16 22 1018.5 1018.4 0.0
18/02:30am 16.8 12.1 14.4 86 1.4 W 32 44 17 24 1018.6 - 0.0
18/02:00am 16.5 12.1 14.2 86 1.3 W 30 43 16 23 1018.7 - 0.0
18/01:30am 16.5 12.4 13.9 84 1.5 W 28 39 15 21 1018.8 - 0.0
18/01:00am 16.3 12.2 13.7 84 1.5 W 28 39 15 21 1018.8 - 0.0
18/12:30am 16.5 12.0 13.7 83 1.6 W 30 41 16 22 1018.9 - 0.0
18/12:00am 16.4 12.6 13.6 83 1.6 W 26 35 14 19 1018.8 1018.7 0.0
 
Date/Time
CST
Temp
°C
App
Temp
°C
Dew
Point
Rel
Hum
%
Delta-T
°C
Wind Press
QNH
hPa
Press
MSL
hPa
Rain
since 9 am
mm
Dir
 
Spd
km/h
Gust
km/h
Spd
kts
Gust
kts
17/11:30pm 16.5 12.8 13.9 84 1.5 W 26 35 14 19 1018.9 - 0.0
17/11:00pm 16.5 11.8 13.1 80 1.9 W 30 41 16 22 1019.2 - 0.0
17/10:30pm 16.5 11.9 13.5 82 1.7 W 30 41 16 22 1019.2 - 0.0
17/10:00pm 16.5 13.0 13.3 81 1.8 W 24 35 13 19 1019.2 - 0.0
17/09:30pm 16.5 13.0 13.5 82 1.7 W 24 32 13 17 1019.2 - 0.0
17/09:00pm 16.8 13.1 15.1 90 1.0 WNW 28 39 15 21 1019.3 1019.2 0.0
17/08:30pm 17.0 13.9 15.6 91 0.8 NW 26 39 14 21 1019.1 - 0.0
17/08:00pm 16.9 14.1 15.4 91 0.9 NW 24 33 13 18 1018.9 - 0.0
17/07:30pm 16.9 14.5 15.4 91 0.9 NW 22 30 12 16 1018.8 - 0.0
17/07:00pm 17.0 15.2 15.5 91 0.9 NW 19 26 10 14 1018.8 - 0.0
17/06:30pm 17.0 14.9 15.1 88 1.1 NW 20 26 11 14 1018.8 - 0.0
17/06:00pm 17.1 14.8 14.7 86 1.4 NW 20 28 11 15 1018.6 1018.5 0.0
17/05:30pm 17.2 15.5 14.6 85 1.5 NNW 17 22 9 12 1018.4 - 0.0
17/05:00pm 17.5 16.2 14.9 85 1.5 NNW 15 20 8 11 1018.4 - 0.0
17/04:30pm 18.3 17.0 14.9 80 2.0 N 15 20 8 11 1018.4 - 0.0
17/04:00pm 18.5 16.9 14.9 79 2.1 N 17 20 9 11 1018.8 - 0.0
17/03:30pm 18.8 17.2 15.1 79 2.2 N 17 20 9 11 1019.0 - 0.0
17/03:00pm 19.2 17.6 14.9 76 2.5 NNW 17 24 9 13 1019.1 1019.0 0.0
17/02:30pm 19.4 17.5 15.3 77 2.4 N 19 24 10 13 1019.3 - 0.0
17/02:00pm 18.7 16.6 15.1 79 2.1 NNW 20 26 11 14 1019.4 - 0.0
17/01:30pm 18.8 16.9 15.1 79 2.2 N 19 26 10 14 1019.6 - 0.0
17/01:00pm 19.0 17.6 15.5 80 2.1 N 17 24 9 13 1019.7 - 0.0

Other Formats:

Comma delimited format used in spreadsheet applications
http://www.bom.gov.au/fwo/IDS60801/IDS60801.95805.axf

JavaScript Object Notation format (JSON) in row-major order
http://www.bom.gov.au/fwo/IDS60801/IDS60801.95805.json